F/V Argentario — FGPE — position and weather

sailwx.info

Track history (hours):
 
Tides and Currents Weather Stations Pressure Air Temp Water Temp Dewpoint Dewpoint Depression Visibility Wind Speed Wind Dir Waves Ship Positions

F/V Argentario

Last reported at 2014-Oct-30 09:33 UTC. Time now 2014-Nov-01 12:44 UTC.
Position N 46°44' W 002°21'.

Length 22 m; draft 3.4 m.

Type: Fishing. MMSI: 228975000.

Date/timePositionNaut miles runAvg speedWind from/ knotsBaromVisibWave heightAir tempDewpointWater temp
2014-Oct-30 09:33N 46°44' W 002°21'7 7.3
2014-Oct-30 08:33N 46°40' W 002°11'9 9.2
2014-Oct-30 07:33N 46°34' W 002°01'9 9.1
2014-Oct-30 06:33N 46°29' W 001°50'2 2.3
2014-Oct-30 05:33N 46°30' W 001°47'0 0.0
2014-Oct-30 04:33N 46°30' W 001°47'0 0.2
2014-Oct-30 03:34N 46°30' W 001°47'5 4.9
2014-Oct-30 02:33N 46°27' W 001°53'8 8.3
2014-Oct-30 01:33N 46°25' W 002°05'9 8.1
2014-Oct-30 00:24N 46°22' W 002°18'7 7.9
2014-Oct-29 23:33N 46°20' W 002°27'51 8.3
2014-Oct-29 17:20N 46°06' W 003°39'7 9.0
2014-Oct-29 16:32N 46°04' W 003°49'8 4.1
2014-Oct-29 14:33N 46°00' W 003°59'3 2.6
2014-Oct-29 13:33N 45°58' W 003°56'5 4.5
2014-Oct-29 12:31N 45°53' W 003°55'1 1.3
2014-Oct-29 11:31N 45°53' W 003°53'0 0.4
2014-Oct-29 10:34N 45°53' W 003°54'2 0.8
2014-Oct-29 08:28N 45°54' W 003°54'4 4.6
2014-Oct-29 07:30N 45°58' W 003°56'1 1.3
2014-Oct-29 06:33N 45°59' W 003°57'1 1.1
2014-Oct-29 05:32N 46°00' W 003°59'1 0.8
2014-Oct-29 04:27N 46°01' W 003°58'2 1.3
2014-Oct-29 03:08N 46°02' W 003°59'1 0.9
2014-Oct-29 02:32N 46°02' W 003°60'4 3.5
2014-Oct-29 01:25N 45°59' W 004°03'1 1.4
2014-Oct-29 00:33N 45°58' W 004°04'0 0.3
2014-Oct-28 23:33N 45°58' W 004°04'1 0.4
2014-Oct-28 21:04N 45°58' W 004°03'0 0.6
2014-Oct-28 20:10N 45°58' W 004°02'7 0.3
2014-Oct-27 17:22N 46°04' W 004°08'5 6.1
2014-Oct-27 16:33N 46°08' W 004°13'10 1.1
2014-Oct-27 07:17N 46°02' W 004°01'1 1.2
2014-Oct-27 06:33N 46°03' W 004°02'1 0.4
2014-Oct-27 04:21N 46°02' W 004°03'  
2014-Oct-24 03:27N 46°39' W 002°07'8 8.5
2014-Oct-24 02:33N 46°42' W 001°57'3 2.9
2014-Oct-24 01:33N 46°41' W 002°01'10 9.4
2014-Oct-24 00:32N 46°43' W 002°15'  
2014-Oct-21 03:06N 46°41' W 002°12'5 8.6
2014-Oct-21 02:34N 46°38' W 002°07'9 8.7
2014-Oct-21 01:34N 46°32' W 001°57'8 7.5
2014-Oct-21 00:34N 46°29' W 001°47'1 1.0
2014-Oct-20 23:33N 46°30' W 001°47'0 0.0
2014-Oct-20 22:33N 46°30' W 001°47'5 5.0
2014-Oct-20 21:33N 46°27' W 001°53'8 8.1
2014-Oct-20 20:34N 46°26' W 002°05'8 7.6
2014-Oct-20 19:32N 46°24' W 002°16'  
Track history (hours):
 
Tides and Currents Weather Stations Pressure Air Temp Water Temp Dewpoint Dewpoint Depression Visibility Wind Speed Wind Dir Waves Ship Positions

F/V Argentario

Last reported at 2014-Oct-30 09:33 UTC. Time now 2014-Nov-01 12:44 UTC.
Position N 46°44' W 002°21'.

Length 22 m; draft 3.4 m.

Type: Fishing. MMSI: 228975000.

Date/timePositionNaut miles runAvg speedWind from/ knotsBaromVisibWave heightAir tempDewpointWater temp
2014-Oct-30 09:33N 46°44' W 002°21'7 7.3
2014-Oct-30 08:33N 46°40' W 002°11'9 9.2
2014-Oct-30 07:33N 46°34' W 002°01'9 9.1
2014-Oct-30 06:33N 46°29' W 001°50'2 2.3
2014-Oct-30 05:33N 46°30' W 001°47'0 0.0
2014-Oct-30 04:33N 46°30' W 001°47'0 0.2
2014-Oct-30 03:34N 46°30' W 001°47'5 4.9
2014-Oct-30 02:33N 46°27' W 001°53'8 8.3
2014-Oct-30 01:33N 46°25' W 002°05'9 8.1
2014-Oct-30 00:24N 46°22' W 002°18'7 7.9
2014-Oct-29 23:33N 46°20' W 002°27'51 8.3
2014-Oct-29 17:20N 46°06' W 003°39'7 9.0
2014-Oct-29 16:32N 46°04' W 003°49'8 4.1
2014-Oct-29 14:33N 46°00' W 003°59'3 2.6
2014-Oct-29 13:33N 45°58' W 003°56'5 4.5
2014-Oct-29 12:31N 45°53' W 003°55'1 1.3
2014-Oct-29 11:31N 45°53' W 003°53'0 0.4
2014-Oct-29 10:34N 45°53' W 003°54'2 0.8
2014-Oct-29 08:28N 45°54' W 003°54'4 4.6
2014-Oct-29 07:30N 45°58' W 003°56'1 1.3
2014-Oct-29 06:33N 45°59' W 003°57'1 1.1
2014-Oct-29 05:32N 46°00' W 003°59'1 0.8
2014-Oct-29 04:27N 46°01' W 003°58'2 1.3
2014-Oct-29 03:08N 46°02' W 003°59'1 0.9
2014-Oct-29 02:32N 46°02' W 003°60'4 3.5
2014-Oct-29 01:25N 45°59' W 004°03'1 1.4
2014-Oct-29 00:33N 45°58' W 004°04'0 0.3
2014-Oct-28 23:33N 45°58' W 004°04'1 0.4
2014-Oct-28 21:04N 45°58' W 004°03'0 0.6
2014-Oct-28 20:10N 45°58' W 004°02'7 0.3
2014-Oct-27 17:22N 46°04' W 004°08'5 6.1
2014-Oct-27 16:33N 46°08' W 004°13'10 1.1
2014-Oct-27 07:17N 46°02' W 004°01'1 1.2
2014-Oct-27 06:33N 46°03' W 004°02'1 0.4
2014-Oct-27 04:21N 46°02' W 004°03'  
2014-Oct-24 03:27N 46°39' W 002°07'8 8.5
2014-Oct-24 02:33N 46°42' W 001°57'3 2.9
2014-Oct-24 01:33N 46°41' W 002°01'10 9.4
2014-Oct-24 00:32N 46°43' W 002°15'  
2014-Oct-21 03:06N 46°41' W 002°12'5 8.6
2014-Oct-21 02:34N 46°38' W 002°07'9 8.7
2014-Oct-21 01:34N 46°32' W 001°57'8 7.5
2014-Oct-21 00:34N 46°29' W 001°47'1 1.0
2014-Oct-20 23:33N 46°30' W 001°47'0 0.0
2014-Oct-20 22:33N 46°30' W 001°47'5 5.0
2014-Oct-20 21:33N 46°27' W 001°53'8 8.1
2014-Oct-20 20:34N 46°26' W 002°05'8 7.6
2014-Oct-20 19:32N 46°24' W 002°16'  

Dump ship's entire track history